Mehmet Bey — 9HUD6 — position and weather

sailwx.info

Track history (hours):
 
Tides and Currents Weather Stations Pressure Air Temp Water Temp Dewpoint Dewpoint Depression Visibility Wind Speed Wind Dir Waves Ship Positions

Mehmet Bey

Last reported at 2018-May-22 00:16 UTC. Time now 2018-Jul-15 20:37 UTC.
Position N 33°08' E 033°47'.
Warning: this ship's position is 54 days out of date.

Length 131 m; draft 5.2 m.

Type: Cargo ship. MMSI: 248864000.

Date/timePositionNaut miles runAvg speedWind from/ knotsBaromVisibWave heightAir tempDewpointWater temp
2018-May-22 00:16N 33°08' E 033°47'8 5.7
2018-May-21 22:51N 33°05' E 033°56'3 7.6
2018-May-21 22:30N 33°04' E 033°59'4 7.9
2018-May-21 22:00N 33°03' E 034°03'4 7.9
2018-May-21 21:30N 33°02' E 034°08'4 8.1
2018-May-21 21:01N 33°02' E 034°13'4 8.2
2018-May-21 20:30N 33°01' E 034°18'4 8.3
2018-May-21 20:00N 32°60' E 034°22'4 8.4
2018-May-21 19:31N 32°59' E 034°27'4 8.3
2018-May-21 19:01N 32°58' E 034°32'4 8.6
2018-May-21 18:31N 32°58' E 034°37'4 8.6
2018-May-21 18:00N 32°56' E 034°42'4 8.2
2018-May-21 17:30N 32°56' E 034°47'4 8.5
2018-May-21 17:00N 32°55' E 034°52'4 8.3
2018-May-21 16:30N 32°53' E 034°56'4 7.9
2018-May-21 15:57N 32°51' E 035°01'  
2018-May-16 09:05N 32°51' E 035°00'0 0.4
2018-May-16 08:54N 32°51' E 035°00'0 0.5
2018-May-16 08:29N 32°51' E 034°60'0 0.1
2018-May-16 03:30N 32°51' E 034°60'0 0.0
2018-May-15 18:53N 32°51' E 034°60'0 0.1
2018-May-15 17:31N 32°51' E 034°60'060.0
2018-May-15 17:30N 32°51' E 035°00'0 0.1
2018-May-15 14:29N 32°51' E 034°60'0 0.1
2018-May-15 12:07N 32°51' E 034°60'0 0.6
2018-May-15 11:59N 32°51' E 034°60'1 2.7
2018-May-15 11:27N 32°52' E 034°58'3 7.0
2018-May-15 11:01N 32°53' E 034°55'4 8.3
2018-May-15 10:30N 32°53' E 034°50'4 8.5
2018-May-15 10:00N 32°54' E 034°45'1 2.3
2018-May-15 09:30N 32°53' E 034°46'4 7.5
2018-May-15 09:00N 32°53' E 034°50'4 7.3
2018-May-15 08:28N 32°52' E 034°55'4 0.7
2018-May-15 02:36N 32°51' E 034°60'0 0.0
2018-May-15 02:11N 32°51' E 034°60'0 0.0
2018-May-14 21:05N 32°51' E 034°60'0 0.0
2018-May-14 20:48N 32°51' E 034°60'0 0.0
2018-May-14 19:30N 32°51' E 034°60'0 0.0
2018-May-14 01:12N 32°51' E 034°60'0 0.0
2018-May-13 17:54N 32°51' E 034°60'0 0.0
2018-May-13 10:36N 32°51' E 034°60'0 0.0
2018-May-13 09:18N 32°51' E 034°60'0 0.0
2018-May-13 09:00N 32°51' E 034°60'0 0.0
2018-May-13 08:11N 32°51' E 034°60'0 0.0
2018-May-13 07:59N 32°51' E 034°60'0 0.0
2018-May-12 23:47N 32°51' E 034°60'0 0.0
2018-May-12 23:23N 32°51' E 034°60'0 0.0
2018-May-12 22:59N 32°51' E 034°60'0 0.0
2018-May-12 22:24N 32°51' E 034°60'0 0.0
2018-May-12 22:00N 32°51' E 034°60'0 0.0
2018-May-12 21:30N 32°51' E 034°60'0 0.0
2018-May-12 20:42N 32°51' E 034°60'0 0.0
2018-May-12 20:23N 32°51' E 034°60'0 0.0
2018-May-12 19:53N 32°51' E 034°60'0 0.0
2018-May-12 19:23N 32°51' E 034°60'0 0.0
2018-May-12 18:54N 32°51' E 034°60'0 0.0
2018-May-12 18:18N 32°51' E 034°60'0 0.0
2018-May-12 15:24N 32°51' E 034°60'0 0.0
2018-May-12 14:11N 32°51' E 034°60'0 0.0
2018-May-12 08:06N 32°51' E 034°60'0 0.0
2018-May-12 06:08N 32°51' E 034°60'0 0.0
2018-May-12 05:42N 32°51' E 034°60'  
Track history (hours):
 
Tides and Currents Weather Stations Pressure Air Temp Water Temp Dewpoint Dewpoint Depression Visibility Wind Speed Wind Dir Waves Ship Positions

Mehmet Bey

Last reported at 2018-May-22 00:16 UTC. Time now 2018-Jul-15 20:37 UTC.
Position N 33°08' E 033°47'.
Warning: this ship's position is 54 days out of date.

Length 131 m; draft 5.2 m.

Type: Cargo ship. MMSI: 248864000.

Date/timePositionNaut miles runAvg speedWind from/ knotsBaromVisibWave heightAir tempDewpointWater temp
2018-May-22 00:16N 33°08' E 033°47'8 5.7
2018-May-21 22:51N 33°05' E 033°56'3 7.6
2018-May-21 22:30N 33°04' E 033°59'4 7.9
2018-May-21 22:00N 33°03' E 034°03'4 7.9
2018-May-21 21:30N 33°02' E 034°08'4 8.1
2018-May-21 21:01N 33°02' E 034°13'4 8.2
2018-May-21 20:30N 33°01' E 034°18'4 8.3
2018-May-21 20:00N 32°60' E 034°22'4 8.4
2018-May-21 19:31N 32°59' E 034°27'4 8.3
2018-May-21 19:01N 32°58' E 034°32'4 8.6
2018-May-21 18:31N 32°58' E 034°37'4 8.6
2018-May-21 18:00N 32°56' E 034°42'4 8.2
2018-May-21 17:30N 32°56' E 034°47'4 8.5
2018-May-21 17:00N 32°55' E 034°52'4 8.3
2018-May-21 16:30N 32°53' E 034°56'4 7.9
2018-May-21 15:57N 32°51' E 035°01'  
2018-May-16 09:05N 32°51' E 035°00'0 0.4
2018-May-16 08:54N 32°51' E 035°00'0 0.5
2018-May-16 08:29N 32°51' E 034°60'0 0.1
2018-May-16 03:30N 32°51' E 034°60'0 0.0
2018-May-15 18:53N 32°51' E 034°60'0 0.1
2018-May-15 17:31N 32°51' E 034°60'060.0
2018-May-15 17:30N 32°51' E 035°00'0 0.1
2018-May-15 14:29N 32°51' E 034°60'0 0.1
2018-May-15 12:07N 32°51' E 034°60'0 0.6
2018-May-15 11:59N 32°51' E 034°60'1 2.7
2018-May-15 11:27N 32°52' E 034°58'3 7.0
2018-May-15 11:01N 32°53' E 034°55'4 8.3
2018-May-15 10:30N 32°53' E 034°50'4 8.5
2018-May-15 10:00N 32°54' E 034°45'1 2.3
2018-May-15 09:30N 32°53' E 034°46'4 7.5
2018-May-15 09:00N 32°53' E 034°50'4 7.3
2018-May-15 08:28N 32°52' E 034°55'4 0.7
2018-May-15 02:36N 32°51' E 034°60'0 0.0
2018-May-15 02:11N 32°51' E 034°60'0 0.0
2018-May-14 21:05N 32°51' E 034°60'0 0.0
2018-May-14 20:48N 32°51' E 034°60'0 0.0
2018-May-14 19:30N 32°51' E 034°60'0 0.0
2018-May-14 01:12N 32°51' E 034°60'0 0.0
2018-May-13 17:54N 32°51' E 034°60'0 0.0
2018-May-13 10:36N 32°51' E 034°60'0 0.0
2018-May-13 09:18N 32°51' E 034°60'0 0.0
2018-May-13 09:00N 32°51' E 034°60'0 0.0
2018-May-13 08:11N 32°51' E 034°60'0 0.0
2018-May-13 07:59N 32°51' E 034°60'0 0.0
2018-May-12 23:47N 32°51' E 034°60'0 0.0
2018-May-12 23:23N 32°51' E 034°60'0 0.0
2018-May-12 22:59N 32°51' E 034°60'0 0.0
2018-May-12 22:24N 32°51' E 034°60'0 0.0
2018-May-12 22:00N 32°51' E 034°60'0 0.0
2018-May-12 21:30N 32°51' E 034°60'0 0.0
2018-May-12 20:42N 32°51' E 034°60'0 0.0
2018-May-12 20:23N 32°51' E 034°60'0 0.0
2018-May-12 19:53N 32°51' E 034°60'0 0.0
2018-May-12 19:23N 32°51' E 034°60'0 0.0
2018-May-12 18:54N 32°51' E 034°60'0 0.0
2018-May-12 18:18N 32°51' E 034°60'0 0.0
2018-May-12 15:24N 32°51' E 034°60'0 0.0
2018-May-12 14:11N 32°51' E 034°60'0 0.0
2018-May-12 08:06N 32°51' E 034°60'0 0.0
2018-May-12 06:08N 32°51' E 034°60'0 0.0
2018-May-12 05:42N 32°51' E 034°60'  

Dump ship's entire track history